Time;durP1;ratioP1;P1;durP2;ratioP2;P2;SDS_P1;SDS_P2;PMS_P1;PMS_P2;Temp;Humidity;BMP_temperature;BMP_pressure;BME280_temperature;BME280_humidity;BME280_pressure;Samples;Min_cycle;Max_cycle;Signal;HPM_P1;HPM_P2
2022/04/28 00:02:09;;;;;;;19.20;7.75;;;;;;;6.41;78.84;103063.88;5007518;28;20036;-61
2022/04/28 00:04:35;;;;;;;18.35;8.30;;;;;;;6.39;79.19;103068.19;5006555;28;20022;-61
2022/04/28 00:07:00;;;;;;;21.13;8.13;;;;;;;6.40;79.32;103070.81;5008330;28;20480;-60
2022/04/28 00:09:25;;;;;;;13.75;7.95;;;;;;;6.37;79.01;103073.38;5007554;28;20030;-58
2022/04/28 00:11:51;;;;;;;15.40;7.85;;;;;;;6.36;79.05;103069.00;5007687;28;20281;-61
2022/04/28 00:14:17;;;;;;;12.88;7.68;;;;;;;6.31;79.11;103068.91;5008120;28;20029;-59
2022/04/28 00:16:42;;;;;;;20.83;7.82;;;;;;;6.26;79.11;103067.91;5005941;28;20022;-60
2022/04/28 00:19:07;;;;;;;17.17;7.72;;;;;;;6.22;79.09;103080.91;5007203;28;20105;-61
2022/04/28 00:21:33;;;;;;;21.15;7.55;;;;;;;6.17;78.99;103076.47;5007538;28;20045;-61
2022/04/28 00:23:58;;;;;;;13.43;8.43;;;;;;;6.12;79.08;103079.84;5006588;28;20076;-61
2022/04/28 00:26:24;;;;;;;18.13;8.90;;;;;;;6.07;79.29;103078.03;5006800;28;20069;-60
2022/04/28 00:28:49;;;;;;;13.88;8.10;;;;;;;6.02;78.83;103071.75;5007453;28;20069;-59
2022/04/28 00:31:14;;;;;;;19.20;8.48;;;;;;;5.99;78.89;103068.22;5006691;28;20477;-60
2022/04/28 00:33:42;;;;;;;14.40;7.97;;;;;;;6.00;78.90;103064.75;5006974;28;20083;-61
2022/04/28 00:36:09;;;;;;;17.63;8.68;;;;;;;5.97;78.86;103070.78;5005960;28;20037;-60
2022/04/28 00:38:35;;;;;;;14.18;7.97;;;;;;;5.98;78.94;103067.31;5007995;28;20464;-59
2022/04/28 00:41:00;;;;;;;18.73;8.43;;;;;;;5.98;79.01;103064.69;5006960;28;20058;-61
2022/04/28 00:43:29;;;;;;;14.02;8.07;;;;;;;5.99;79.28;103069.06;5006565;28;20022;-61
2022/04/28 00:45:55;;;;;;;16.27;7.75;;;;;;;6.06;78.92;103071.00;5007809;28;20030;-60
2022/04/28 00:51:06;;;;;;;16.15;7.47;;;;;;;6.17;79.06;103054.66;5007555;28;20048;-61
2022/04/28 00:53:35;;;;;;;12.25;7.45;;;;;;;6.23;79.02;103059.13;5006439;28;20030;-58
2022/04/28 00:56:01;;;;;;;19.40;7.97;;;;;;;6.29;79.01;103059.25;4985264;28;20042;-60
2022/04/28 00:58:27;;;;;;;15.55;8.40;;;;;;;6.36;79.25;103061.16;4986897;28;20029;-61
2022/04/28 01:00:53;;;;;;;24.17;8.63;;;;;;;6.37;79.35;103062.91;4995739;28;20037;-60
2022/04/28 01:03:20;;;;;;;19.95;9.45;;;;;;;6.42;79.10;103063.00;5006833;28;20041;-58
2022/04/28 01:05:46;;;;;;;16.65;7.90;;;;;;;6.42;79.41;103065.63;5006055;28;20076;-60
2022/04/28 01:08:11;;;;;;;26.63;9.60;;;;;;;6.49;79.35;103059.63;5005926;28;20096;-60
2022/04/28 01:10:37;;;;;;;17.13;8.20;;;;;;;6.55;79.87;103058.88;4988547;28;20022;-59
2022/04/28 01:13:03;;;;;;;24.77;9.20;;;;;;;6.56;79.53;103058.00;5006228;28;20042;-61
2022/04/28 01:15:28;;;;;;;18.90;9.63;;;;;;;6.59;79.61;103059.81;5006914;28;20834;-60
2022/04/28 01:17:53;;;;;;;21.50;9.65;;;;;;;6.57;79.85;103067.66;5005611;28;20057;-61
2022/04/28 01:20:19;;;;;;;17.27;9.48;;;;;;;6.61;79.78;103064.22;4988392;28;20121;-61
2022/04/28 01:22:44;;;;;;;17.52;8.82;;;;;;;6.61;79.70;103063.34;5006352;28;20076;-60
2022/04/28 01:25:11;;;;;;;22.35;9.43;;;;;;;6.59;79.81;103063.31;4988421;28;20160;-60
2022/04/28 01:27:37;;;;;;;29.48;10.50;;;;;;;6.61;79.80;103069.47;5007233;28;20026;-60
2022/04/28 01:30:14;;;;;;;21.45;9.23;;;;;;;6.60;79.57;103064.19;5008461;28;20025;-60
2022/04/28 01:32:39;;;;;;;18.08;8.75;;;;;;;6.61;79.30;103065.94;5009011;28;20033;-61
2022/04/28 01:35:05;;;;;;;20.35;9.77;;;;;;;6.61;79.32;103066.84;5010691;28;20034;-61
2022/04/28 01:37:31;;;;;;;16.15;9.38;;;;;;;6.59;79.57;103065.91;5008833;28;20485;-60
2022/04/28 01:39:56;;;;;;;22.42;9.88;;;;;;;6.54;80.16;103068.44;5010070;28;20037;-58
2022/04/28 01:42:23;;;;;;;18.25;9.35;;;;;;;6.56;79.75;103066.75;5009307;28;20029;-59
2022/04/28 01:44:49;;;;;;;19.73;10.95;;;;;;;6.52;80.26;103064.03;5010112;28;20022;-60
2022/04/28 01:47:14;;;;;;;24.58;10.70;;;;;;;6.53;79.93;103074.56;5009405;28;20026;-61
2022/04/28 01:49:40;;;;;;;16.10;9.95;;;;;;;6.52;79.97;103070.19;5010103;28;20042;-60
2022/04/28 01:54:59;;;;;;;32.63;12.30;;;;;;;6.55;80.15;103059.75;5010562;28;20056;-60
2022/04/28 01:57:29;;;;;;;23.13;10.93;;;;;;;6.60;79.98;103067.72;5008545;28;20040;-61
2022/04/28 01:59:56;;;;;;;20.13;10.55;;;;;;;6.58;80.11;103066.78;5009385;28;20477;-58
2022/04/28 02:02:22;;;;;;;26.77;11.10;;;;;;;6.60;80.00;103072.94;5008446;28;20025;-60
2022/04/28 02:04:47;;;;;;;26.10;10.85;;;;;;;6.64;79.82;103073.88;5009512;28;20017;-61
2022/04/28 02:07:13;;;;;;;26.73;11.50;;;;;;;6.65;79.52;103071.28;5009172;28;20026;-60
2022/04/28 02:09:40;;;;;;;16.13;10.93;;;;;;;6.63;79.56;103072.13;5009571;28;20030;-62
2022/04/28 02:12:06;;;;;;;21.75;10.50;;;;;;;6.66;79.29;103072.19;5009864;28;20034;-60
2022/04/28 02:14:31;;;;;;;26.55;12.65;;;;;;;6.61;79.07;103069.47;5008469;28;20068;-62
2022/04/28 02:16:57;;;;;;;25.27;11.30;;;;;;;6.61;78.84;103069.47;5009688;28;20026;-58
2022/04/28 02:19:22;;;;;;;24.38;10.13;;;;;;;6.55;78.92;103070.25;5008389;28;20038;-59
2022/04/28 02:21:47;;;;;;;22.95;11.27;;;;;;;6.54;78.92;103064.97;5010742;28;20034;-60
2022/04/28 02:24:13;;;;;;;21.80;10.20;;;;;;;6.56;78.42;103074.63;5008236;28;20022;-60
2022/04/28 02:26:38;;;;;;;20.58;9.43;;;;;;;6.56;78.47;103077.22;5009054;28;20493;-65
2022/04/28 02:29:03;;;;;;;20.85;10.65;;;;;;;6.51;78.45;103081.53;5007627;28;20025;-60
2022/04/28 02:31:29;;;;;;;20.83;9.93;;;;;;;6.52;78.25;103085.00;5009498;28;20469;-59
2022/04/28 02:33:54;;;;;;;21.55;10.57;;;;;;;6.47;78.39;103074.44;5007538;28;20026;-60
2022/04/28 02:36:20;;;;;;;22.65;9.95;;;;;;;6.44;78.29;103077.00;5008720;28;20044;-60
2022/04/28 02:38:46;;;;;;;20.73;10.52;;;;;;;6.39;78.45;103074.31;5007217;28;20026;-59
2022/04/28 02:41:11;;;;;;;19.98;9.82;;;;;;;6.39;77.97;103076.03;5007891;28;20534;-61
2022/04/28 02:43:36;;;;;;;20.05;9.65;;;;;;;6.38;77.65;103075.13;5007083;28;20053;-61
2022/04/28 02:46:02;;;;;;;24.65;9.68;;;;;;;6.38;77.44;103076.91;5009401;28;20361;-60
2022/04/28 02:48:27;;;;;;;21.92;10.13;;;;;;;6.38;77.30;103066.41;5006971;28;20069;-61
2022/04/28 02:50:52;;;;;;;17.27;8.98;;;;;;;6.39;77.14;103070.78;5009500;28;20034;-59
2022/04/28 02:53:18;;;;;;;17.88;8.95;;;;;;;6.38;77.35;103069.03;5008268;28;20380;-66
2022/04/28 02:55:44;;;;;;;16.00;9.00;;;;;;;6.43;77.06;103065.66;5008934;28;20038;-61
2022/04/28 02:58:09;;;;;;;17.30;9.45;;;;;;;6.41;77.12;103072.59;5008707;28;20025;-61
2022/04/28 03:00:37;;;;;;;16.27;8.75;;;;;;;6.34;77.47;103070.69;5007273;28;20038;-59
2022/04/28 03:03:03;;;;;;;18.08;8.82;;;;;;;6.29;77.35;103075.84;5008037;28;20033;-60
2022/04/28 03:05:29;;;;;;;12.45;8.95;;;;;;;6.24;77.58;103080.13;5008012;28;20022;-60
2022/04/28 03:10:49;;;;;;;16.98;8.75;;;;;;;6.14;77.51;103073.78;5008239;28;20108;-61
2022/04/28 03:13:18;;;;;;;18.63;9.27;;;;;;;6.10;77.73;103073.69;5009186;28;20029;-60
2022/04/28 03:15:47;;;;;;;11.70;8.18;;;;;;;6.03;77.79;103073.56;5008400;28;20492;-61
2022/04/28 03:18:14;;;;;;;22.60;8.88;;;;;;;5.98;77.94;103071.66;5008701;28;20038;-61
2022/04/28 03:20:40;;;;;;;18.60;9.38;;;;;;;5.91;78.37;103071.56;5008941;28;20388;-62
2022/04/28 03:23:06;;;;;;;17.35;8.85;;;;;;;5.91;78.15;103074.16;5009053;28;20026;-61
2022/04/28 03:25:31;;;;;;;20.35;10.73;;;;;;;5.91;78.49;103076.78;5008679;28;20048;-61
2022/04/28 03:27:57;;;;;;;17.08;10.13;;;;;;;5.92;78.56;103069.81;5009272;28;20061;-60
2022/04/28 03:30:23;;;;;;;19.88;10.07;;;;;;;5.90;78.74;103069.75;5008765;28;20053;-60
2022/04/28 03:32:48;;;;;;;26.52;9.68;;;;;;;5.85;79.11;103071.41;5007369;28;20405;-62
2022/04/28 03:35:14;;;;;;;20.05;9.75;;;;;;;5.81;79.02;103070.44;5008660;28;20148;-60
2022/04/28 03:37:40;;;;;;;17.50;9.05;;;;;;;5.80;79.14;103071.31;5006451;28;20159;-62
2022/04/28 03:40:06;;;;;;;24.38;10.02;;;;;;;5.74;79.17;103073.78;5007368;28;20101;-60
2022/04/28 03:42:31;;;;;;;27.05;11.50;;;;;;;5.74;79.63;103067.66;5007427;28;20033;-59
2022/04/28 03:44:56;;;;;;;19.13;11.45;;;;;;;5.74;79.79;103073.78;5007663;28;20037;-60
2022/04/28 03:47:22;;;;;;;21.73;11.10;;;;;;;5.68;79.83;103069.31;5006620;28;20072;-60
2022/04/28 03:49:47;;;;;;;21.95;11.02;;;;;;;5.73;79.57;103071.13;5007875;28;20461;-61
2022/04/28 03:52:13;;;;;;;28.60;11.85;;;;;;;5.74;80.12;103071.16;5006702;28;20018;-60
2022/04/28 03:54:38;;;;;;;26.65;11.68;;;;;;;5.70;80.27;103064.09;5005164;28;20060;-63
2022/04/28 03:57:03;;;;;;;23.83;11.32;;;;;;;5.66;80.08;103070.13;5006881;28;20392;-60
2022/04/28 03:59:29;;;;;;;23.00;11.23;;;;;;;5.67;80.12;103071.88;5006890;28;20052;-60
2022/04/28 04:01:54;;;;;;;25.40;11.45;;;;;;;5.68;80.55;103074.53;5007360;28;20403;-64
2022/04/28 04:04:19;;;;;;;19.08;11.55;;;;;;;5.75;80.37;103078.16;5006995;28;20033;-61
2022/04/28 04:06:45;;;;;;;22.08;11.43;;;;;;;5.81;80.55;103080.91;5007625;28;20030;-60
2022/04/28 04:09:10;;;;;;;21.05;10.88;;;;;;;5.79;80.71;103079.13;5007626;28;20439;-59
2022/04/28 04:11:35;;;;;;;22.13;10.82;;;;;;;5.82;80.74;103072.22;5007952;28;20468;-61
2022/04/28 04:14:00;;;;;;;25.48;11.63;;;;;;;5.76;81.03;103069.47;5008167;28;20026;-62
2022/04/28 04:16:26;;;;;;;18.35;11.27;;;;;;;5.81;80.81;103075.69;5008543;28;20155;-68
2022/04/28 04:18:51;;;;;;;25.63;11.95;;;;;;;5.79;80.90;103072.16;5006046;28;20026;-60
2022/04/28 04:21:16;;;;;;;23.73;11.55;;;;;;;5.86;80.79;103072.28;5015777;28;20057;-60
2022/04/28 04:23:42;;;;;;;21.42;11.75;;;;;;;5.84;80.63;103074.00;5026379;28;20072;-60
2022/04/28 04:26:07;;;;;;;25.92;12.40;;;;;;;5.90;80.77;103079.38;5012583;28;20045;-62
2022/04/28 04:28:33;;;;;;;20.60;11.48;;;;;;;5.92;80.75;103080.25;5007130;28;20464;-60
2022/04/28 04:33:42;;;;;;;20.05;10.70;;;;;;;5.93;80.48;103085.53;5006268;28;20052;-61
2022/04/28 04:36:07;;;;;;;24.83;12.77;;;;;;;5.89;80.87;103088.03;5005579;28;20401;-60
2022/04/28 04:38:33;;;;;;;23.40;11.02;;;;;;;5.95;80.67;103093.41;5006888;28;20038;-60
2022/04/28 04:40:58;;;;;;;23.35;10.50;;;;;;;5.92;80.74;103090.72;5006266;28;20030;-58
2022/04/28 04:43:23;;;;;;;20.58;11.35;;;;;;;5.98;80.69;103093.50;5006717;28;20400;-60
2022/04/28 04:45:49;;;;;;;20.45;11.85;;;;;;;5.98;80.42;103097.84;5006240;28;20072;-60
2022/04/28 04:48:15;;;;;;;25.20;11.60;;;;;;;5.99;80.41;103100.47;5006292;28;20778;-59
2022/04/28 04:50:40;;;;;;;26.67;11.10;;;;;;;6.00;80.45;103106.63;5005391;28;20037;-59
2022/04/28 04:53:06;;;;;;;24.02;10.50;;;;;;;5.99;80.56;103110.09;5006083;28;20040;-60
2022/04/28 04:55:38;;;;;;;24.25;10.40;;;;;;;6.03;80.15;103110.19;4987835;28;20032;-61
2022/04/28 04:58:04;;;;;;;24.13;10.88;;;;;;;6.04;80.21;103111.97;4989632;28;20030;-60
2022/04/28 05:00:30;;;;;;;19.00;10.82;;;;;;;6.05;80.18;103111.13;5005067;28;20041;-61
2022/04/28 05:02:55;;;;;;;26.23;11.30;;;;;;;6.18;79.66;103119.25;5006377;28;20026;-60
2022/04/28 05:05:20;;;;;;;21.65;10.30;;;;;;;6.12;79.74;103120.00;5004963;28;20531;-62
2022/04/28 05:07:46;;;;;;;19.40;9.80;;;;;;;6.17;79.37;103125.34;4987980;28;20057;-59
2022/04/28 05:10:11;;;;;;;17.67;9.80;;;;;;;6.25;79.16;103129.00;4985971;28;20062;-60
2022/04/28 05:12:36;;;;;;;20.95;9.98;;;;;;;6.31;79.15;103131.75;5002891;28;20078;-62
2022/04/28 05:15:02;;;;;;;24.50;10.23;;;;;;;6.36;78.81;103131.84;5005905;28;20484;-63
2022/04/28 05:17:28;;;;;;;26.77;10.45;;;;;;;6.41;78.53;103134.56;5004645;28;20248;-60
2022/04/28 05:19:56;;;;;;;19.10;10.48;;;;;;;6.45;78.34;103136.41;5004940;28;20076;-58
2022/04/28 05:22:22;;;;;;;17.50;9.87;;;;;;;6.49;78.11;103137.31;5005326;28;20034;-61
2022/04/28 05:24:47;;;;;;;17.27;9.40;;;;;;;6.48;77.95;103139.09;5006451;28;20385;-62
2022/04/28 05:27:14;;;;;;;16.13;8.52;;;;;;;6.56;77.71;103142.72;5005086;28;20046;-61
2022/04/28 05:29:39;;;;;;;17.55;9.07;;;;;;;6.64;77.43;103139.38;5004935;28;20056;-62
2022/04/28 05:32:05;;;;;;;17.52;9.70;;;;;;;6.74;77.26;103146.56;5004878;28;20439;-63
2022/04/28 05:34:31;;;;;;;18.85;9.07;;;;;;;6.74;77.05;103149.19;5005149;28;20671;-61
2022/04/28 05:36:56;;;;;;;17.33;9.35;;;;;;;6.68;76.63;103155.19;5005039;28;20053;-60
2022/04/28 05:39:21;;;;;;;13.65;8.43;;;;;;;6.86;76.51;103166.00;5006413;28;20096;-61
2022/04/28 05:41:47;;;;;;;20.13;8.60;;;;;;;6.90;76.35;103163.47;4988024;28;20493;-61
2022/04/28 05:46:56;;;;;;;19.27;8.73;;;;;;;6.93;75.60;103165.28;5004641;28;20061;-62
2022/04/28 05:49:21;;;;;;;16.67;8.15;;;;;;;7.06;75.61;103174.25;5006447;28;20041;-61
2022/04/28 05:51:48;;;;;;;17.17;8.63;;;;;;;7.28;74.85;103178.13;5005837;28;20022;-59
2022/04/28 05:54:14;;;;;;;12.68;7.45;;;;;;;7.31;74.73;103183.44;4987461;28;20065;-60
2022/04/28 05:56:39;;;;;;;19.17;8.82;;;;;;;7.33;74.21;103188.72;4985432;28;20836;-60
2022/04/28 05:59:05;;;;;;;13.45;7.35;;;;;;;7.40;73.83;103192.31;5002664;28;20406;-60
2022/04/28 06:01:30;;;;;;;18.08;8.43;;;;;;;7.49;73.57;103195.09;5005214;28;20034;-59
2022/04/28 06:03:56;;;;;;;15.15;7.97;;;;;;;7.57;73.39;103197.84;5004752;28;20037;-60
2022/04/28 06:06:21;;;;;;;16.85;7.45;;;;;;;7.70;73.10;103202.44;5005478;28;20018;-60
2022/04/28 06:08:46;;;;;;;17.15;8.25;;;;;;;7.76;72.55;103198.13;5005681;28;20034;-58
2022/04/28 06:11:12;;;;;;;14.27;8.05;;;;;;;7.83;72.26;103202.66;5006086;28;20030;-59
2022/04/28 06:13:37;;;;;;;16.02;7.75;;;;;;;7.92;71.76;103212.41;4987464;28;20050;-60
2022/04/28 06:16:03;;;;;;;13.60;7.20;;;;;;;7.97;71.26;103208.09;5009095;28;20033;-61
2022/04/28 06:18:28;;;;;;;17.95;7.57;;;;;;;7.95;71.28;103204.59;5006204;28;20045;-67
2022/04/28 06:20:54;;;;;;;15.63;7.13;;;;;;;8.09;70.79;103210.94;5009506;28;20033;-59
2022/04/28 06:23:19;;;;;;;20.35;7.40;;;;;;;8.28;69.96;103199.81;5008867;28;20169;-61
2022/04/28 06:25:45;;;;;;;14.40;6.43;;;;;;;8.52;69.54;103204.47;5008723;28;20069;-64
2022/04/28 06:28:11;;;;;;;19.02;7.22;;;;;;;8.48;69.49;103210.56;5009313;28;20041;-61
2022/04/28 06:30:36;;;;;;;14.90;5.78;;;;;;;8.56;69.33;103210.72;5009001;28;20469;-61
2022/04/28 06:33:02;;;;;;;15.63;6.13;;;;;;;8.63;69.12;103212.53;5006740;28;20032;-61
2022/04/28 06:35:27;;;;;;;13.80;6.57;;;;;;;8.71;68.31;103221.44;5008360;28;20045;-60
2022/04/28 06:37:53;;;;;;;14.48;6.10;;;;;;;8.85;68.14;103232.09;5009193;28;20116;-66
2022/04/28 06:40:18;;;;;;;17.40;6.60;;;;;;;8.83;67.33;103233.84;5008807;28;20511;-62
2022/04/28 06:42:44;;;;;;;9.90;5.97;;;;;;;8.92;67.48;103233.06;5008734;28;20112;-63
2022/04/28 06:45:12;;;;;;;18.88;6.20;;;;;;;9.00;66.77;103238.38;5008216;28;20038;-61
2022/04/28 06:47:38;;;;;;;13.82;5.32;;;;;;;9.08;66.46;103235.84;5008214;28;20121;-66
2022/04/28 06:50:04;;;;;;;14.23;6.05;;;;;;;9.26;66.19;103239.53;5007795;28;20134;-61
2022/04/28 06:52:29;;;;;;;14.82;5.65;;;;;;;9.36;65.83;103236.13;5008786;28;20018;-63
2022/04/28 06:54:54;;;;;;;11.05;5.10;;;;;;;9.41;66.08;103238.81;5007884;28;20556;-62
2022/04/28 06:57:20;;;;;;;13.20;5.38;;;;;;;9.46;66.03;103243.25;5008956;28;20123;-63
2022/04/28 06:59:46;;;;;;;14.00;5.30;;;;;;;9.45;66.19;103241.50;5007992;28;20073;-64
2022/04/28 07:02:11;;;;;;;16.63;5.57;;;;;;;9.64;65.81;103241.66;5007311;28;20082;-63
2022/04/28 07:04:37;;;;;;;11.70;5.63;;;;;;;9.59;65.93;103248.63;5007477;28;20032;-63
2022/04/28 07:07:02;;;;;;;10.65;4.75;;;;;;;9.83;65.19;103254.97;5007788;28;20366;-64
2022/04/28 07:09:28;;;;;;;14.35;5.57;;;;;;;9.90;65.11;103254.16;5007204;28;20034;-63
2022/04/28 07:11:53;;;;;;;11.57;5.07;;;;;;;10.06;64.91;103254.28;5007663;28;20025;-65
2022/04/28 07:14:19;;;;;;;16.95;5.63;;;;;;;10.07;63.61;103256.94;5007631;28;20472;-64
2022/04/28 07:16:44;;;;;;;12.35;4.63;;;;;;;10.02;63.62;103258.63;5006903;28;20500;-63
2022/04/28 07:19:09;;;;;;;12.77;5.38;;;;;;;10.16;63.60;103255.22;5007709;28;20690;-64
2022/04/28 07:21:35;;;;;;;12.07;5.45;;;;;;;10.14;64.14;103259.59;5002451;28;20105;-65
2022/04/28 07:24:00;;;;;;;13.02;4.50;;;;;;;10.18;62.79;103270.16;4989501;28;20109;-65
2022/04/28 07:26:26;;;;;;;18.33;4.88;;;;;;;10.15;62.90;103270.16;5004411;28;20432;-59
2022/04/28 07:28:51;;;;;;;11.45;4.13;;;;;;;10.42;62.47;103268.53;5007825;28;20041;-64
2022/04/28 07:31:17;;;;;;;13.07;5.05;;;;;;;10.48;62.54;103265.97;4989601;28;20026;-62
2022/04/28 07:33:42;;;;;;;10.18;4.68;;;;;;;10.64;62.13;103266.06;5006965;28;20369;-61
2022/04/28 07:36:07;;;;;;;14.10;5.50;;;;;;;10.56;62.07;103276.56;5008089;28;20516;-62
2022/04/28 07:38:33;;;;;;;12.95;5.15;;;;;;;10.55;61.30;103284.47;5006689;28;20041;-60
2022/04/28 07:41:00;;;;;;;13.55;5.07;;;;;;;10.48;61.34;103279.16;4990354;28;20377;-62
2022/04/28 07:43:26;;;;;;;11.93;4.90;;;;;;;10.73;61.62;103283.69;5006674;28;20037;-61
2022/04/28 07:45:51;;;;;;;9.82;4.15;;;;;;;10.86;61.30;103277.59;5007711;28;20026;-61
2022/04/28 07:48:16;;;;;;;13.32;3.83;;;;;;;11.04;60.43;103285.56;5006639;28;20373;-61
2022/04/28 07:50:42;;;;;;;10.30;3.92;;;;;;;11.14;59.13;103283.84;5006895;28;20030;-62
2022/04/28 07:53:07;;;;;;;12.23;4.20;;;;;;;11.03;58.00;103286.44;5006476;28;20053;-60
2022/04/28 07:55:32;;;;;;;10.88;3.67;;;;;;;11.06;58.16;103284.72;5007210;28;20022;-63
2022/04/28 07:57:58;;;;;;;7.60;3.35;;;;;;;10.90;58.29;103280.25;5005725;28;20057;-63
2022/04/28 08:00:23;;;;;;;14.48;4.20;;;;;;;10.84;58.48;103281.13;5007376;28;20048;-62
2022/04/28 08:02:49;;;;;;;14.40;3.90;;;;;;;10.77;58.30;103285.47;5007215;28;20076;-61
2022/04/28 08:05:15;;;;;;;26.38;7.43;;;;;;;10.93;58.94;103288.19;5008262;28;20026;-60
2022/04/28 08:07:40;;;;;;;8.80;3.80;;;;;;;11.03;58.35;103294.34;5006331;28;20109;-60
2022/04/28 08:10:06;;;;;;;12.88;3.50;;;;;;;11.04;58.27;103298.75;5007226;28;20030;-58
2022/04/28 08:12:32;;;;;;;18.33;3.95;;;;;;;11.09;58.22;103299.66;4989724;28;20038;-68
2022/04/28 08:14:58;;;;;;;15.18;4.28;;;;;;;10.99;58.09;103302.25;5005416;28;20559;-68
2022/04/28 08:17:23;;;;;;;15.23;4.50;;;;;;;10.94;58.17;103303.13;5006445;28;20026;-61
2022/04/28 08:19:48;;;;;;;14.23;3.80;;;;;;;10.97;57.63;103303.13;5005626;28;20412;-67
2022/04/28 08:22:14;;;;;;;11.55;3.95;;;;;;;11.17;58.02;103310.25;5006442;28;20121;-61
2022/04/28 08:24:39;;;;;;;11.07;3.35;;;;;;;11.42;57.13;103305.03;5005843;28;20401;-68
2022/04/28 08:27:04;;;;;;;10.50;3.88;;;;;;;11.73;56.72;103305.97;5007227;28;20060;-66
2022/04/28 08:29:30;;;;;;;11.85;3.83;;;;;;;11.80;56.03;103309.47;5005411;28;20432;-66
2022/04/28 08:31:56;;;;;;;11.98;3.55;;;;;;;11.85;56.02;103302.44;5006857;28;20133;-66
2022/04/28 08:34:22;;;;;;;9.63;3.65;;;;;;;12.04;56.33;103310.34;5006116;28;20033;-67
2022/04/28 08:36:48;;;;;;;12.60;4.32;;;;;;;12.00;56.15;103305.97;5007847;28;20042;-67
2022/04/28 08:39:13;;;;;;;15.80;3.45;;;;;;;12.24;55.49;103306.88;5004916;28;20026;-67
2022/04/28 08:41:47;;;;;;;14.13;4.03;;;;;;;12.25;56.11;103309.50;4989132;28;20388;-67
2022/04/28 08:44:21;;;;;;;10.13;4.03;;;;;;;12.59;54.36;103305.03;5005512;28;20021;-66
2022/04/28 08:46:53;;;;;;;11.27;3.58;;;;;;;12.92;54.34;103294.34;5006448;28;20432;-66
2022/04/28 08:49:30;;;;;;;7.53;4.25;;;;;;;13.08;55.89;103290.72;5006258;28;20033;-64
2022/04/28 08:51:56;;;;;;;4.75;3.28;;;;;;;12.99;54.51;103290.78;5006647;28;20033;-66
2022/04/28 08:54:23;;;;;;;10.98;4.05;;;;;;;12.30;55.57;103301.56;5005197;28;20034;-64
2022/04/28 08:56:50;;;;;;;6.70;3.40;;;;;;;12.58;55.74;103296.22;5006139;28;20026;-65
2022/04/28 08:59:15;;;;;;;11.13;4.10;;;;;;;12.69;55.97;103298.84;5005859;28;20113;-67
2022/04/28 09:01:41;;;;;;;13.18;4.47;;;;;;;12.28;55.66;103297.19;5006000;28;20502;-63
2022/04/28 09:04:10;;;;;;;9.27;3.40;;;;;;;12.49;56.06;103301.50;5006257;28;20032;-64
2022/04/28 09:06:36;;;;;;;12.10;3.20;;;;;;;12.06;54.63;103297.16;5007030;28;20034;-69
2022/04/28 09:09:12;;;;;;;10.82;3.60;;;;;;;12.03;56.02;103300.69;5005812;28;20076;-70
2022/04/28 09:11:39;;;;;;;10.07;3.15;;;;;;;12.04;54.58;103304.22;5006054;28;20045;-67
2022/04/28 09:14:13;;;;;;;8.48;3.30;;;;;;;11.94;55.17;103305.97;5005550;28;20029;-67
2022/04/28 09:16:44;;;;;;;14.77;3.65;;;;;;;11.73;55.90;103299.78;5004560;28;20030;-69
2022/04/28 09:19:12;;;;;;;7.47;2.80;;;;;;;12.35;54.98;103299.81;4987556;28;20045;-71
2022/04/28 09:21:39;;;;;;;7.95;3.53;;;;;;;12.19;54.53;103303.34;5005390;28;20104;-69
2022/04/28 09:24:04;;;;;;;11.40;4.03;;;;;;;12.41;54.17;103293.63;5005946;28;20026;-64
2022/04/28 09:26:32;;;;;;;9.70;3.42;;;;;;;12.58;54.75;103298.00;5004279;28;20066;-67
2022/04/28 09:29:02;;;;;;;12.32;3.72;;;;;;;12.47;54.51;103290.97;5007028;28;20113;-69
2022/04/28 09:31:29;;;;;;;8.35;3.00;;;;;;;12.31;54.69;103282.16;5005331;28;20448;-69
2022/04/28 09:33:54;;;;;;;9.88;3.08;;;;;;;11.97;55.25;103292.75;5005769;28;20469;-67
2022/04/28 09:36:19;;;;;;;14.80;3.00;;;;;;;12.46;53.39;103286.53;5005357;28;20041;-70
2022/04/28 09:38:45;;;;;;;11.38;3.28;;;;;;;12.48;53.94;103281.25;5006537;28;20030;-70
2022/04/28 09:43:55;;;;;;;9.30;3.45;;;;;;;12.34;54.39;103276.03;5005354;28;20404;-67
2022/04/28 09:46:25;;;;;;;12.80;3.60;;;;;;;12.92;53.34;103274.06;5003640;28;20018;-80
2022/04/28 09:48:51;;;;;;;12.20;4.00;;;;;;;12.83;53.91;103284.66;5005405;28;20045;-64
2022/04/28 09:51:22;;;;;;;11.52;3.83;;;;;;;13.02;53.60;103283.72;5007061;28;20085;-75
2022/04/28 09:53:48;;;;;;;8.55;3.47;;;;;;;12.60;53.03;103290.91;5009080;28;20042;-68
2022/04/28 09:56:16;;;;;;;9.32;3.35;;;;;;;12.64;54.87;103296.19;4993253;28;20021;-68
2022/04/28 09:58:42;;;;;;;15.32;4.15;;;;;;;12.53;53.52;103289.19;5028490;28;20040;-70
2022/04/28 10:01:08;;;;;;;8.07;3.30;;;;;;;12.48;53.77;103289.19;5022722;28;20484;-68
2022/04/28 10:03:34;;;;;;;14.50;3.85;;;;;;;12.95;54.14;103279.34;5009101;28;20042;-69
2022/04/28 10:06:02;;;;;;;13.23;4.63;;;;;;;12.74;54.75;103280.31;5008387;28;20568;-67
2022/04/28 10:08:30;;;;;;;9.95;3.83;;;;;;;12.80;54.93;103282.94;5007854;28;20030;-68
2022/04/28 10:10:56;;;;;;;12.38;3.75;;;;;;;12.71;53.55;103280.31;5006304;28;20472;-68
2022/04/28 10:13:23;;;;;;;12.20;3.85;;;;;;;12.82;54.33;103267.91;5009109;28;20041;-69
2022/04/28 10:15:52;;;;;;;8.57;3.40;;;;;;;12.80;53.58;103275.00;4999556;28;20030;-67
2022/04/28 10:18:21;;;;;;;7.57;3.65;;;;;;;13.04;52.79;103264.28;4985060;28;20162;-68
2022/04/28 10:20:47;;;;;;;8.70;3.67;;;;;;;12.34;53.33;103282.16;4985466;28;20037;-70
2022/04/28 10:23:14;;;;;;;11.90;3.97;;;;;;;12.31;53.20;103278.66;4969759;28;20026;-70
2022/04/28 10:34:12;;;;;;;11.95;3.70;;;;;;;12.80;52.79;103264.41;4946606;28;20220;-70
2022/04/28 10:36:56;;;;;;;10.95;4.65;;;;;;;12.78;54.12;103263.53;4987837;28;20908;-68
2022/04/28 10:39:39;;;;;;;8.38;3.70;;;;;;;12.89;52.32;103263.47;4970317;28;20114;-69
2022/04/28 10:42:21;;;;;;;9.73;3.83;;;;;;;12.76;53.37;103273.22;4985849;28;20505;-68
2022/04/28 10:44:54;;;;;;;12.73;3.70;;;;;;;12.96;53.93;103275.78;4974441;28;20076;-68
2022/04/28 10:47:37;;;;;;;9.88;3.65;;;;;;;13.51;52.66;103270.19;5009835;28;20036;-65
2022/04/28 10:50:04;;;;;;;10.20;3.63;;;;;;;13.75;51.78;103271.78;4989337;28;20489;-66
2022/04/28 10:52:30;;;;;;;8.63;3.33;;;;;;;13.73;54.02;103278.00;5008397;28;20033;-68
2022/04/28 10:55:02;;;;;;;10.98;3.85;;;;;;;13.67;51.95;103275.38;5006679;28;20034;-71
2022/04/28 10:57:32;;;;;;;9.88;3.35;;;;;;;13.71;51.97;103263.84;5007996;28;20041;-72
2022/04/28 11:00:00;;;;;;;8.05;3.97;;;;;;;14.02;52.17;103274.19;5007963;28;20038;-68
2022/04/28 11:02:25;;;;;;;9.70;4.15;;;;;;;13.90;52.59;103272.53;5008454;28;20033;-66
2022/04/28 11:05:03;;;;;;;7.85;4.05;;;;;;;13.98;52.77;103275.13;5007682;28;20384;-65
2022/04/28 11:07:29;;;;;;;9.57;3.80;;;;;;;14.38;50.87;103271.16;5008829;28;20025;-64
2022/04/28 11:10:01;;;;;;;11.30;3.83;;;;;;;14.19;49.26;103271.38;5005316;28;20057;-63
2022/04/28 11:12:34;;;;;;;9.07;4.20;;;;;;;13.78;49.68;103270.84;4991067;28;20511;-66
2022/04/28 11:15:05;;;;;;;7.10;4.32;;;;;;;13.89;51.66;103269.03;5005428;28;20033;-64
2022/04/28 11:17:32;;;;;;;8.85;4.13;;;;;;;14.41;52.19;103265.84;4987913;28;20053;-69
2022/04/28 11:20:01;;;;;;;9.27;4.10;;;;;;;14.41;50.99;103263.19;4989101;28;20390;-65
2022/04/28 11:22:27;;;;;;;9.82;4.10;;;;;;;14.47;50.53;103265.78;5007381;28;20053;-63
2022/04/28 11:24:53;;;;;;;7.78;4.45;;;;;;;14.33;48.94;103259.75;5007994;28;20036;-64
2022/04/28 11:27:22;;;;;;;9.18;4.60;;;;;;;14.23;48.61;103257.19;5007391;28;20046;-62
2022/04/28 11:29:54;;;;;;;8.80;4.35;;;;;;;14.52;49.87;103258.66;5006705;28;20041;-63
2022/04/28 11:32:20;;;;;;;10.35;4.38;;;;;;;14.51;49.71;103263.97;4990079;28;20041;-65
2022/04/28 11:34:47;;;;;;;14.77;4.60;;;;;;;14.47;49.48;103263.13;4988854;28;20042;-67
2022/04/28 11:37:23;;;;;;;13.50;4.43;;;;;;;15.02;49.82;103263.34;5008603;28;20113;-64
2022/04/28 11:39:51;;;;;;;12.80;4.20;;;;;;;15.11;48.98;103262.31;5006560;28;20056;-68
2022/04/28 11:42:16;;;;;;;10.27;4.05;;;;;;;15.66;48.71;103253.53;5008246;28;20181;-65
2022/04/28 11:44:46;;;;;;;10.25;3.97;;;;;;;15.73;48.29;103254.28;5005622;28;20237;-63